Time;durP1;ratioP1;P1;durP2;ratioP2;P2;SDS_P1;SDS_P2;PMS_P1;PMS_P2;Temp;Humidity;BMP_temperature;BMP_pressure;BME280_temperature;BME280_humidity;BME280_pressure;Samples;Min_cycle;Max_cycle;Signal;HPM_P1;HPM_P2
2023/09/04 00:00:27;;;;;;;0.05;0.00;;;;;;;19.42;100.00;101372.28;5044677;28;20094;-84
2023/09/04 00:02:52;;;;;;;0.00;0.00;;;;;;;19.46;100.00;101369.09;5044481;28;20055;-84
2023/09/04 00:05:18;;;;;;;0.10;0.00;;;;;;;19.62;100.00;101364.69;5046185;28;20037;-84
2023/09/04 00:07:44;;;;;;;0.08;0.00;;;;;;;19.67;100.00;101375.53;5043479;28;20056;-84
2023/09/04 00:10:11;;;;;;;0.05;0.00;;;;;;;19.58;100.00;101377.44;5044587;28;20021;-84
2023/09/04 00:12:39;;;;;;;0.00;0.00;;;;;;;19.51;100.00;101374.69;5052361;28;20112;-84
2023/09/04 00:15:05;;;;;;;0.05;0.00;;;;;;;19.51;100.00;101361.47;5040984;28;20453;-84
2023/09/04 00:17:31;;;;;;;0.00;0.00;;;;;;;19.45;100.00;101362.16;5039265;28;20103;-84
2023/09/04 00:19:56;;;;;;;0.00;0.00;;;;;;;19.42;100.00;101370.44;5040214;28;20026;-84
2023/09/04 00:22:22;;;;;;;0.00;0.00;;;;;;;19.41;100.00;101370.63;5039637;28;20022;-84
2023/09/04 00:24:48;;;;;;;0.13;0.00;;;;;;;19.39;100.00;101373.44;5050334;28;20041;-84
2023/09/04 00:27:13;;;;;;;0.00;0.00;;;;;;;19.41;100.00;101384.66;5042903;28;20037;-84
2023/09/04 00:29:39;;;;;;;0.00;0.00;;;;;;;19.43;100.00;101392.41;5035051;28;20103;-84
2023/09/04 00:32:05;;;;;;;0.00;0.00;;;;;;;19.48;100.00;101384.78;5053770;28;20041;-84
2023/09/04 00:34:32;;;;;;;0.17;0.00;;;;;;;19.44;100.00;101384.31;5038318;28;20053;-84
2023/09/04 00:36:58;;;;;;;0.00;0.00;;;;;;;19.42;100.00;101391.59;5034546;28;20048;-84
2023/09/04 00:39:24;;;;;;;0.00;0.00;;;;;;;19.37;100.00;101387.88;5042874;28;20382;-84
2023/09/04 00:41:49;;;;;;;0.30;0.00;;;;;;;19.36;100.00;101380.94;5040951;28;20111;-84
2023/09/04 00:44:15;;;;;;;0.00;0.00;;;;;;;19.35;100.00;101401.25;5046778;28;20037;-84
2023/09/04 00:46:43;;;;;;;0.00;0.00;;;;;;;19.30;100.00;101387.75;5049111;28;20040;-84
2023/09/04 00:49:10;;;;;;;0.00;0.00;;;;;;;19.30;100.00;101390.41;5038262;28;20057;-84
2023/09/04 00:51:36;;;;;;;0.10;0.00;;;;;;;19.26;100.00;101383.00;5052042;28;20032;-84
2023/09/04 00:54:01;;;;;;;0.03;0.00;;;;;;;19.20;100.00;101395.13;5046604;28;20061;-84
2023/09/04 00:56:27;;;;;;;0.00;0.00;;;;;;;19.19;100.00;101396.13;5043194;28;20033;-84
2023/09/04 00:58:53;;;;;;;0.10;0.00;;;;;;;19.18;100.00;101397.13;5038744;28;20470;-84
2023/09/04 01:01:18;;;;;;;0.00;0.00;;;;;;;19.28;100.00;101396.88;5042276;28;20033;-84
2023/09/04 01:03:44;;;;;;;0.03;0.00;;;;;;;19.30;100.00;101390.41;5037880;28;20567;-84
2023/09/04 01:06:09;;;;;;;0.00;0.00;;;;;;;19.27;100.00;101393.41;5043066;28;20032;-84
2023/09/04 01:08:36;;;;;;;0.08;0.00;;;;;;;19.21;100.00;101386.19;5047108;28;20029;-84
2023/09/04 01:11:31;;;;;;;0.10;0.00;;;;;;;19.12;100.00;101387.25;5043905;28;20034;-84
2023/09/04 01:13:57;;;;;;;0.00;0.00;;;;;;;19.01;100.00;101385.03;5044926;28;20037;-84
2023/09/04 01:16:24;;;;;;;0.00;0.00;;;;;;;18.96;100.00;101382.09;5038578;28;20033;-84
2023/09/04 01:18:50;;;;;;;0.20;0.00;;;;;;;18.99;100.00;101381.75;5040711;28;20033;-84
2023/09/04 01:21:16;;;;;;;0.20;0.08;;;;;;;19.03;100.00;101377.75;5036483;28;20033;-84
2023/09/04 01:23:42;;;;;;;0.00;0.00;;;;;;;18.96;100.00;101375.00;5038924;28;20462;-84
2023/09/04 01:26:23;;;;;;;0.00;0.00;;;;;;;18.93;100.00;101363.97;5038233;28;20030;-84
2023/09/04 01:28:58;;;;;;;0.30;0.22;;;;;;;18.88;100.00;101383.84;5040606;28;20029;-84
2023/09/04 01:31:29;;;;;;;0.00;0.00;;;;;;;18.85;100.00;101378.91;5036446;28;20033;-84
2023/09/04 01:34:22;;;;;;;0.00;0.00;;;;;;;18.84;100.00;101376.44;5048303;28;20037;-84
2023/09/04 01:36:51;;;;;;;0.00;0.00;;;;;;;18.79;100.00;101368.22;5043752;28;20045;-84
2023/09/04 01:39:17;;;;;;;0.10;0.00;;;;;;;18.66;100.00;101374.06;5041817;28;20033;-84
2023/09/04 01:41:42;;;;;;;0.10;0.00;;;;;;;18.73;100.00;101369.75;5046440;28;20129;-84
2023/09/04 01:44:08;;;;;;;0.00;0.00;;;;;;;18.79;100.00;101361.13;5043922;28;20033;-84
2023/09/04 01:46:34;;;;;;;0.00;0.00;;;;;;;18.79;100.00;101362.94;5063540;28;20025;-84
2023/09/04 01:49:00;;;;;;;0.10;0.00;;;;;;;18.82;100.00;101366.06;5052706;28;20029;-84
2023/09/04 01:51:25;;;;;;;0.00;0.00;;;;;;;18.80;100.00;101359.31;5036919;28;20022;-84
2023/09/04 01:53:51;;;;;;;0.00;0.00;;;;;;;18.74;100.00;101360.00;5041548;28;20639;-84
2023/09/04 01:56:16;;;;;;;0.30;0.00;;;;;;;18.68;100.00;101353.59;5038965;28;20029;-84
2023/09/04 01:58:41;;;;;;;0.28;0.00;;;;;;;18.64;100.00;101352.31;5042310;28;20040;-84
2023/09/04 02:01:07;;;;;;;0.00;0.00;;;;;;;18.58;100.00;101352.97;5035863;28;20099;-84
2023/09/04 02:03:33;;;;;;;0.10;0.00;;;;;;;18.56;100.00;101354.97;5041983;28;20120;-84
2023/09/04 02:05:58;;;;;;;0.00;0.00;;;;;;;18.37;100.00;101352.81;5040704;28;20037;-84
2023/09/04 02:08:24;;;;;;;0.00;0.00;;;;;;;18.42;100.00;101350.47;5047190;28;20062;-84
2023/09/04 02:10:49;;;;;;;0.00;0.00;;;;;;;18.52;100.00;101349.22;5056754;28;20036;-84
2023/09/04 02:13:15;;;;;;;0.10;0.00;;;;;;;18.52;100.00;101353.69;5052716;28;20437;-84
2023/09/04 02:15:41;;;;;;;0.20;0.00;;;;;;;18.44;100.00;101364.28;5041583;28;20040;-84
2023/09/04 02:18:06;;;;;;;0.00;0.00;;;;;;;18.47;100.00;101356.00;5038996;28;20099;-84
2023/09/04 02:20:32;;;;;;;0.00;0.00;;;;;;;18.57;100.00;101365.34;5041804;28;20497;-84
2023/09/04 02:22:58;;;;;;;0.00;0.00;;;;;;;18.64;100.00;101360.22;5045173;28;20036;-84
2023/09/04 02:25:24;;;;;;;0.10;0.00;;;;;;;18.58;100.00;101372.28;5043499;28;20033;-84
2023/09/04 02:27:50;;;;;;;0.17;0.00;;;;;;;18.53;100.00;101364.06;5048313;28;20037;-84
2023/09/04 02:30:15;;;;;;;0.10;0.00;;;;;;;18.62;100.00;101353.47;5047434;28;20371;-84
2023/09/04 02:32:41;;;;;;;0.00;0.00;;;;;;;18.66;100.00;101354.78;5044059;28;20030;-84
2023/09/04 02:35:07;;;;;;;0.10;0.00;;;;;;;18.61;100.00;101354.47;5046931;28;20029;-84
2023/09/04 02:37:32;;;;;;;0.00;0.00;;;;;;;18.57;100.00;101361.88;5050828;28;20036;-84
2023/09/04 02:39:58;;;;;;;0.00;0.00;;;;;;;18.52;100.00;101364.22;5045199;28;20033;-84
2023/09/04 02:42:23;;;;;;;0.00;0.00;;;;;;;18.54;100.00;101370.97;5043473;28;20049;-84
2023/09/04 02:44:49;;;;;;;0.00;0.00;;;;;;;18.49;100.00;101370.69;5061018;28;20447;-84
2023/09/04 02:47:14;;;;;;;0.00;0.00;;;;;;;18.51;100.00;101365.22;5032317;28;20376;-84
2023/09/04 02:49:39;;;;;;;0.00;0.00;;;;;;;18.53;100.00;101358.78;5044255;28;20453;-84
2023/09/04 02:52:05;;;;;;;0.00;0.00;;;;;;;18.52;100.00;101365.06;5043650;28;20119;-84
2023/09/04 02:54:30;;;;;;;0.00;0.00;;;;;;;18.48;100.00;101357.66;5046041;28;20057;-84
2023/09/04 02:56:56;;;;;;;0.05;0.00;;;;;;;18.40;100.00;101363.00;5047711;28;20031;-84
2023/09/04 02:59:21;;;;;;;0.10;0.00;;;;;;;18.35;100.00;101368.81;5043949;28;20041;-84
2023/09/04 03:01:50;;;;;;;0.38;0.00;;;;;;;18.39;100.00;101359.53;5041398;28;20029;-84
2023/09/04 03:04:16;;;;;;;0.10;0.00;;;;;;;18.39;100.00;101356.09;5049250;28;20457;-84
2023/09/04 03:06:41;;;;;;;0.10;0.00;;;;;;;18.36;100.00;101356.44;5046258;28;20123;-84
2023/09/04 03:09:07;;;;;;;0.00;0.00;;;;;;;18.28;100.00;101356.47;5041669;28;20024;-84
2023/09/04 03:11:32;;;;;;;0.00;0.00;;;;;;;18.20;100.00;101354.69;5045174;28;20128;-84
2023/09/04 03:13:58;;;;;;;0.13;0.00;;;;;;;18.19;100.00;101348.59;5036630;28;20029;-84
2023/09/04 03:16:23;;;;;;;0.30;0.00;;;;;;;18.05;100.00;101351.97;5038762;28;20116;-84
2023/09/04 03:18:49;;;;;;;0.08;0.00;;;;;;;18.06;100.00;101350.97;5054144;28;20113;-84
2023/09/04 03:21:14;;;;;;;0.43;0.00;;;;;;;18.06;100.00;101347.50;5043295;28;20059;-84
2023/09/04 03:23:39;;;;;;;0.10;0.00;;;;;;;18.03;100.00;101347.84;5044730;28;20124;-84
2023/09/04 03:26:05;;;;;;;0.10;0.00;;;;;;;17.96;100.00;101345.06;5046588;28;20478;-84
2023/09/04 03:28:30;;;;;;;0.20;0.00;;;;;;;17.99;100.00;101346.53;5048184;28;20033;-84
2023/09/04 03:30:55;;;;;;;0.00;0.00;;;;;;;17.99;100.00;101350.00;5042518;28;20040;-84
2023/09/04 03:33:21;;;;;;;0.00;0.00;;;;;;;17.96;100.00;101345.06;5046672;28;20405;-84
2023/09/04 03:35:46;;;;;;;0.10;0.00;;;;;;;17.95;100.00;101354.00;5040512;28;20503;-84
2023/09/04 03:38:13;;;;;;;0.00;0.00;;;;;;;17.87;100.00;101356.66;5056072;28;20154;-83
2023/09/04 03:40:38;;;;;;;0.05;0.00;;;;;;;17.93;100.00;101350.72;5044182;28;20029;-83
2023/09/04 03:43:04;;;;;;;0.00;0.00;;;;;;;17.90;100.00;101353.69;5050044;28;20036;-84
2023/09/04 03:45:34;;;;;;;0.10;0.00;;;;;;;17.84;100.00;101351.72;5036664;28;20025;-84
2023/09/04 03:47:59;;;;;;;0.10;0.00;;;;;;;17.80;100.00;101356.53;5038649;28;20398;-84
2023/09/04 03:50:25;;;;;;;0.25;0.08;;;;;;;17.80;100.00;101366.25;5060222;28;20033;-84
2023/09/04 03:52:50;;;;;;;0.00;0.00;;;;;;;17.75;100.00;101364.13;5043905;28;20036;-83
2023/09/04 03:55:16;;;;;;;0.00;0.00;;;;;;;17.72;100.00;101361.00;5063803;28;20032;-84
2023/09/04 03:57:43;;;;;;;0.30;0.00;;;;;;;17.77;100.00;101356.03;5044538;28;20032;-84
2023/09/04 04:00:18;;;;;;;0.00;0.00;;;;;;;17.77;100.00;101354.22;5041558;28;20040;-83
2023/09/04 04:02:46;;;;;;;0.00;0.00;;;;;;;17.72;100.00;101358.34;5036892;28;20111;-83
2023/09/04 04:05:13;;;;;;;0.10;0.00;;;;;;;17.66;100.00;101361.66;5043472;28;20029;-84
2023/09/04 04:07:38;;;;;;;0.00;0.00;;;;;;;17.63;100.00;101357.53;5040796;28;20052;-84
2023/09/04 04:10:05;;;;;;;0.00;0.00;;;;;;;17.59;100.00;101370.22;5041468;28;20600;-83
2023/09/04 04:12:31;;;;;;;0.00;0.00;;;;;;;17.58;100.00;101373.84;5042239;28;20442;-83
2023/09/04 04:15:03;;;;;;;0.00;0.00;;;;;;;17.58;100.00;101375.66;5037259;28;20045;-84
2023/09/04 04:17:29;;;;;;;0.20;0.00;;;;;;;17.57;100.00;101379.28;5037440;28;20139;-84
2023/09/04 04:19:55;;;;;;;0.20;0.03;;;;;;;17.57;100.00;101376.63;5033083;28;20910;-83
2023/09/04 04:22:21;;;;;;;1.20;0.00;;;;;;;17.56;100.00;101375.00;5046281;28;20047;-83
2023/09/04 04:24:47;;;;;;;0.00;0.00;;;;;;;17.55;100.00;101379.44;5034220;28;20485;-83
2023/09/04 04:27:12;;;;;;;0.00;0.00;;;;;;;17.53;100.00;101378.78;5037694;28;20735;-83
2023/09/04 04:29:38;;;;;;;0.00;0.00;;;;;;;17.64;100.00;101376.78;5034873;28;20033;-84
2023/09/04 04:32:05;;;;;;;0.25;0.00;;;;;;;17.72;100.00;101382.06;5038644;28;20047;-83
2023/09/04 04:34:30;;;;;;;0.00;0.00;;;;;;;17.70;100.00;101381.41;5044888;28;20390;-84
2023/09/04 04:36:56;;;;;;;0.00;0.00;;;;;;;17.65;100.00;101388.97;5039904;28;20033;-84
2023/09/04 04:39:22;;;;;;;0.00;0.00;;;;;;;17.50;100.00;101389.66;5039564;28;20176;-83
2023/09/04 04:41:48;;;;;;;0.00;0.00;;;;;;;17.49;100.00;101382.75;5042395;28;20036;-84
2023/09/04 04:44:14;;;;;;;0.05;0.00;;;;;;;17.62;100.00;101384.03;5044756;28;20116;-84
2023/09/04 04:46:40;;;;;;;0.00;0.00;;;;;;;17.72;100.00;101380.25;5047983;28;20119;-84
2023/09/04 04:49:06;;;;;;;0.00;0.00;;;;;;;17.73;100.00;101370.53;5037679;28;20025;-84
2023/09/04 04:51:31;;;;;;;0.00;0.00;;;;;;;17.81;100.00;101386.34;5053193;28;20475;-84
2023/09/04 04:53:56;;;;;;;0.00;0.00;;;;;;;17.82;100.00;101403.78;5044150;28;20046;-84
2023/09/04 04:56:22;;;;;;;0.10;0.00;;;;;;;17.85;100.00;101395.56;5061239;28;20036;-84
2023/09/04 04:58:48;;;;;;;0.08;0.00;;;;;;;17.89;100.00;101391.59;5038070;28;20128;-84
2023/09/04 05:01:13;;;;;;;0.00;0.00;;;;;;;17.92;100.00;101401.81;5041443;28;20033;-84
2023/09/04 05:03:39;;;;;;;0.00;0.00;;;;;;;18.03;100.00;101408.50;5042334;28;20048;-84
2023/09/04 05:06:08;;;;;;;0.00;0.00;;;;;;;18.08;100.00;101416.72;5040576;28;20409;-85
2023/09/04 05:08:34;;;;;;;0.00;0.00;;;;;;;18.15;100.00;101413.22;5058172;28;20122;-85
2023/09/04 05:11:03;;;;;;;0.00;0.00;;;;;;;18.34;100.00;101419.09;5044885;28;20032;-84
2023/09/04 05:13:29;;;;;;;0.22;0.00;;;;;;;18.44;100.00;101422.31;5042172;28;20025;-85
2023/09/04 05:15:54;;;;;;;0.08;0.00;;;;;;;18.50;100.00;101417.19;5037860;28;20041;-85
2023/09/04 05:18:20;;;;;;;0.03;0.00;;;;;;;18.55;100.00;101416.66;5051576;28;20509;-85
2023/09/04 05:20:45;;;;;;;0.10;0.00;;;;;;;18.58;100.00;101411.03;5035154;28;20049;-85
2023/09/04 05:23:11;;;;;;;0.00;0.00;;;;;;;18.64;100.00;101420.94;5024671;28;20040;-85
2023/09/04 05:25:36;;;;;;;0.00;0.00;;;;;;;18.72;100.00;101420.06;5042816;28;20075;-84
2023/09/04 05:28:02;;;;;;;0.00;0.00;;;;;;;18.80;100.00;101430.59;5038672;28;20041;-85
2023/09/04 05:30:27;;;;;;;0.00;0.00;;;;;;;18.88;100.00;101431.34;5038912;28;20045;-84
2023/09/04 05:32:53;;;;;;;0.10;0.00;;;;;;;18.95;100.00;101430.63;5048587;28;20033;-84
2023/09/04 05:35:19;;;;;;;0.10;0.00;;;;;;;19.05;100.00;101432.03;5045968;28;20037;-84
2023/09/04 05:37:44;;;;;;;0.00;0.00;;;;;;;19.11;100.00;101426.06;5041150;28;20075;-84
2023/09/04 05:40:11;;;;;;;0.63;0.00;;;;;;;18.98;100.00;101432.91;5049178;28;20025;-85
2023/09/04 05:42:36;;;;;;;0.08;0.00;;;;;;;18.83;100.00;101428.41;5047684;28;20025;-84
2023/09/04 05:45:03;;;;;;;0.00;0.00;;;;;;;18.86;100.00;101433.34;5066016;28;20043;-84
2023/09/04 05:47:28;;;;;;;0.20;0.05;;;;;;;18.96;100.00;101427.81;5053250;28;20067;-84
2023/09/04 05:49:54;;;;;;;0.00;0.00;;;;;;;19.06;100.00;101427.59;5047944;28;20033;-84
2023/09/04 05:52:19;;;;;;;0.10;0.00;;;;;;;19.18;100.00;101426.16;5063721;28;20033;-84
2023/09/04 05:54:45;;;;;;;0.10;0.00;;;;;;;19.19;100.00;101428.63;5047134;28;20081;-84
2023/09/04 05:57:10;;;;;;;0.00;0.00;;;;;;;19.08;100.00;101428.22;5056937;28;20032;-83
2023/09/04 05:59:36;;;;;;;0.10;0.00;;;;;;;19.04;100.00;101429.56;5038493;28;20029;-84
2023/09/04 06:02:01;;;;;;;0.00;0.00;;;;;;;19.05;100.00;101425.94;5047320;28;20033;-84
2023/09/04 06:04:27;;;;;;;0.00;0.00;;;;;;;19.15;100.00;101426.53;5062758;28;20045;-84
2023/09/04 06:06:52;;;;;;;0.00;0.00;;;;;;;19.32;100.00;101414.84;5060234;28;20029;-84
2023/09/04 06:09:18;;;;;;;0.30;0.00;;;;;;;19.47;100.00;101409.56;5048575;28;20025;-85
2023/09/04 06:11:44;;;;;;;0.00;0.00;;;;;;;19.61;100.00;101414.06;5058194;28;20573;-86
2023/09/04 06:14:09;;;;;;;0.00;0.00;;;;;;;19.69;100.00;101415.81;5042980;28;20041;-86
2023/09/04 06:16:35;;;;;;;0.10;0.00;;;;;;;19.81;100.00;101422.31;5051632;28;20032;-85
2023/09/04 06:19:01;;;;;;;0.00;0.00;;;;;;;19.93;100.00;101422.66;5047170;28;20157;-86
2023/09/04 06:21:26;;;;;;;0.00;0.00;;;;;;;20.09;100.00;101419.84;5049896;28;20069;-85
2023/09/04 06:23:52;;;;;;;0.00;0.00;;;;;;;20.18;100.00;101426.66;5048423;28;20473;-86
2023/09/04 06:26:17;;;;;;;0.10;0.00;;;;;;;20.15;95.92;101435.78;5058486;28;20033;-86
2023/09/04 06:28:43;;;;;;;0.00;0.00;;;;;;;20.23;98.77;101436.72;5051822;28;20028;-85
2023/09/04 06:31:08;;;;;;;0.03;0.00;;;;;;;20.32;96.66;101443.53;5046787;28;20516;-86
2023/09/04 06:33:37;;;;;;;0.00;0.00;;;;;;;20.43;100.00;101438.59;5041869;28;20033;-86
2023/09/04 06:36:03;;;;;;;0.10;0.10;;;;;;;20.53;96.18;101438.31;5063118;28;20041;-85
2023/09/04 06:38:29;;;;;;;0.00;0.00;;;;;;;20.60;99.08;101444.50;5060952;28;20035;-86
2023/09/04 06:40:57;;;;;;;0.25;0.00;;;;;;;20.69;97.65;101437.28;5048088;28;20052;-86
2023/09/04 06:43:27;;;;;;;0.00;0.00;;;;;;;20.78;99.00;101439.63;5051424;28;20033;-86
2023/09/04 06:45:53;;;;;;;0.10;0.10;;;;;;;20.91;98.91;101440.75;5047880;28;20146;-86
2023/09/04 06:48:19;;;;;;;0.00;0.00;;;;;;;21.02;98.63;101437.59;5051650;28;20135;-85
2023/09/04 06:50:46;;;;;;;0.10;0.00;;;;;;;21.12;96.32;101441.59;5050805;28;20091;-85
2023/09/04 06:53:12;;;;;;;0.00;0.00;;;;;;;21.24;98.71;101428.69;5043748;28;20052;-85
2023/09/04 06:55:37;;;;;;;0.00;0.00;;;;;;;21.34;96.58;101426.50;5050631;28;20029;-85
2023/09/04 06:58:03;;;;;;;0.00;0.00;;;;;;;21.47;95.23;101431.91;5043641;28;20025;-85
2023/09/04 07:00:29;;;;;;;0.00;0.00;;;;;;;21.55;91.38;101430.13;5048623;28;20441;-85
2023/09/04 07:02:54;;;;;;;0.00;0.00;;;;;;;21.63;94.98;101436.09;5036689;28;20069;-85
2023/09/04 07:05:20;;;;;;;0.20;0.00;;;;;;;21.69;95.38;101430.03;5040821;28;20120;-85
2023/09/04 07:07:47;;;;;;;0.10;0.00;;;;;;;21.66;93.34;101421.63;5041527;28;20033;-85
2023/09/04 07:10:13;;;;;;;0.00;0.00;;;;;;;21.60;93.49;101423.22;5045398;28;20099;-88
2023/09/04 07:12:40;;;;;;;0.00;0.00;;;;;;;21.53;94.37;101433.78;5048909;28;20041;-87
2023/09/04 07:15:06;;;;;;;0.10;0.00;;;;;;;21.55;94.60;101425.63;5044106;28;20037;-87
2023/09/04 07:17:32;;;;;;;0.00;0.00;;;;;;;21.66;93.89;101440.19;5043876;28;20024;-87
2023/09/04 07:19:58;;;;;;;0.15;0.00;;;;;;;21.79;92.24;101445.56;5048460;28;20075;-87
2023/09/04 07:22:24;;;;;;;0.00;0.00;;;;;;;21.85;90.18;101442.16;5047359;28;20121;-88
2023/09/04 07:24:51;;;;;;;0.10;0.00;;;;;;;22.01;85.71;101449.84;5050336;28;20405;-85
2023/09/04 07:27:16;;;;;;;0.00;0.00;;;;;;;22.14;83.76;101434.00;5045764;28;20036;-85
2023/09/04 07:29:41;;;;;;;0.00;0.00;;;;;;;22.32;83.94;101430.78;5047308;28;20036;-85
2023/09/04 07:32:07;;;;;;;0.10;0.00;;;;;;;22.37;83.00;101438.16;5050722;28;20029;-85
2023/09/04 07:34:32;;;;;;;0.00;0.00;;;;;;;22.50;85.89;101422.28;5052177;28;20059;-85
2023/09/04 07:36:58;;;;;;;0.10;0.00;;;;;;;22.49;82.03;101436.56;5057946;28;20040;-85
2023/09/04 07:39:23;;;;;;;0.10;0.00;;;;;;;22.28;83.20;101431.38;5049201;28;20056;-85
2023/09/04 07:41:49;;;;;;;0.13;0.00;;;;;;;22.14;83.02;101434.00;5049203;28;20024;-82
2023/09/04 07:44:14;;;;;;;0.00;0.00;;;;;;;22.35;84.88;101440.19;5049185;28;20045;-82
2023/09/04 07:46:40;;;;;;;0.00;0.00;;;;;;;22.52;86.76;101436.16;5050980;28;20455;-82
2023/09/04 07:49:06;;;;;;;0.03;0.00;;;;;;;22.63;82.77;101438.25;5048107;28;20454;-85
2023/09/04 07:51:32;;;;;;;0.00;0.00;;;;;;;22.69;78.61;101450.69;5044405;28;20036;-85
2023/09/04 07:53:58;;;;;;;0.10;0.00;;;;;;;22.81;81.39;101451.78;5047467;28;20073;-85
2023/09/04 07:56:24;;;;;;;0.03;0.00;;;;;;;22.78;80.80;101446.03;5040167;28;20029;-85
2023/09/04 07:58:50;;;;;;;0.10;0.00;;;;;;;22.80;81.22;101450.16;5046920;28;20060;-84
2023/09/04 08:01:17;;;;;;;0.00;0.00;;;;;;;22.89;83.44;101449.97;5046592;28;20056;-84
2023/09/04 08:03:42;;;;;;;0.00;0.00;;;;;;;22.98;84.54;101446.09;5046409;28;20066;-84
2023/09/04 08:06:08;;;;;;;0.17;0.00;;;;;;;23.01;80.64;101451.03;5038584;28;20041;-84
2023/09/04 08:08:33;;;;;;;0.00;0.00;;;;;;;23.08;77.88;101460.66;5046202;28;20029;-84
2023/09/04 08:10:59;;;;;;;0.00;0.00;;;;;;;23.04;78.39;101467.38;5046390;28;20037;-84
2023/09/04 08:13:25;;;;;;;0.00;0.00;;;;;;;22.98;75.55;101478.00;5059477;28;20076;-84
2023/09/04 08:15:50;;;;;;;0.25;0.00;;;;;;;23.05;80.88;101476.19;5049040;28;20059;-84
2023/09/04 08:18:15;;;;;;;0.05;0.00;;;;;;;23.17;80.22;101469.22;5047196;28;20024;-84
2023/09/04 08:20:41;;;;;;;0.10;0.00;;;;;;;23.25;76.43;101469.03;5062810;28;20597;-84
2023/09/04 08:23:07;;;;;;;0.00;0.00;;;;;;;23.36;80.13;101460.44;5044739;28;20099;-84
2023/09/04 08:25:33;;;;;;;0.03;0.00;;;;;;;23.42;78.25;101459.63;5051006;28;20460;-84
2023/09/04 08:27:59;;;;;;;0.03;0.00;;;;;;;23.66;81.90;101452.88;5055491;28;20067;-84
2023/09/04 08:30:25;;;;;;;0.10;0.00;;;;;;;23.72;82.52;101443.25;5047702;28;20029;-84
2023/09/04 08:32:50;;;;;;;0.10;0.00;;;;;;;23.72;82.80;101435.28;5037312;28;20032;-84
2023/09/04 08:35:17;;;;;;;0.15;0.00;;;;;;;23.70;82.67;101435.47;5042892;28;20035;-85
2023/09/04 08:37:43;;;;;;;0.10;0.00;;;;;;;23.77;83.95;101430.16;5037945;28;20091;-84
2023/09/04 08:40:09;;;;;;;0.00;0.00;;;;;;;23.76;82.23;101433.81;5045267;28;20106;-84
2023/09/04 08:42:38;;;;;;;0.08;0.00;;;;;;;23.64;82.35;101424.84;5037859;28;20029;-84
2023/09/04 08:45:07;;;;;;;0.03;0.00;;;;;;;23.44;74.01;101436.31;5038447;28;20057;-84
2023/09/04 08:47:38;;;;;;;0.10;0.00;;;;;;;23.39;78.88;101440.59;5039813;28;20036;-84
2023/09/04 08:50:05;;;;;;;0.17;0.10;;;;;;;23.45;80.13;101443.25;5055518;28;20487;-84
2023/09/04 08:52:31;;;;;;;0.00;0.00;;;;;;;23.46;82.92;101441.41;5042091;28;20041;-82
2023/09/04 08:54:56;;;;;;;0.00;0.00;;;;;;;23.42;82.34;101454.31;5047158;28;20055;-84
2023/09/04 08:57:24;;;;;;;0.00;0.00;;;;;;;23.42;83.22;101458.81;5042018;28;20656;-84
2023/09/04 08:59:50;;;;;;;0.00;0.00;;;;;;;23.45;83.07;101459.22;5038829;28;20029;-85
2023/09/04 09:02:16;;;;;;;0.03;0.00;;;;;;;23.47;83.70;101448.38;5030532;28;20037;-84
2023/09/04 09:04:42;;;;;;;0.10;0.00;;;;;;;23.46;81.35;101447.56;5062167;28;20094;-85
2023/09/04 09:07:10;;;;;;;0.20;0.00;;;;;;;23.42;83.34;101441.00;5058669;28;20226;-84
2023/09/04 09:09:42;;;;;;;0.00;0.00;;;;;;;23.43;78.69;101452.47;5051469;28;20029;-84
2023/09/04 09:12:07;;;;;;;0.20;0.00;;;;;;;23.39;82.11;101452.06;5058047;28;20126;-84
2023/09/04 09:14:34;;;;;;;0.08;0.00;;;;;;;23.36;83.48;101459.63;5041680;28;20128;-84
2023/09/04 09:17:07;;;;;;;0.00;0.00;;;;;;;23.43;84.02;101455.94;5050677;28;20032;-84
2023/09/04 09:19:34;;;;;;;0.08;0.00;;;;;;;23.45;85.21;101443.25;5042492;28;20029;-84
2023/09/04 09:22:12;;;;;;;0.08;0.00;;;;;;;23.35;73.79;101436.72;5050170;28;20033;-84
2023/09/04 09:24:52;;;;;;;0.00;0.00;;;;;;;23.28;78.64;101431.41;5049505;28;20037;-84
2023/09/04 09:27:20;;;;;;;0.00;0.00;;;;;;;23.30;76.58;101425.88;5049605;28;20033;-84
2023/09/04 09:29:47;;;;;;;0.10;0.00;;;;;;;23.31;76.06;101433.66;5042570;28;20120;-84
2023/09/04 09:32:12;;;;;;;0.10;0.00;;;;;;;23.29;79.46;101433.03;5046620;28;20466;-84
2023/09/04 09:34:39;;;;;;;0.00;0.00;;;;;;;23.35;83.16;101432.22;5050017;28;20025;-84
2023/09/04 09:37:07;;;;;;;0.10;0.00;;;;;;;23.37;83.45;101427.50;5050284;28;20390;-84
2023/09/04 09:39:33;;;;;;;0.00;0.00;;;;;;;23.37;84.80;101424.03;5049933;28;20033;-84
2023/09/04 09:42:00;;;;;;;0.00;0.00;;;;;;;23.32;83.44;101419.34;5049342;28;20150;-84
2023/09/04 09:44:31;;;;;;;0.00;0.00;;;;;;;23.28;80.53;101410.13;5048082;28;20131;-84
2023/09/04 09:46:57;;;;;;;0.00;0.00;;;;;;;23.26;77.81;101412.16;5052490;28;20024;-84
2023/09/04 09:49:22;;;;;;;0.00;0.00;;;;;;;23.26;81.53;101404.19;5053749;28;20036;-82
2023/09/04 09:51:52;;;;;;;0.00;0.00;;;;;;;23.22;83.24;101405.63;5052376;28;20037;-84
2023/09/04 09:54:33;;;;;;;0.00;0.00;;;;;;;23.21;80.74;101411.97;5049425;28;20132;-84
2023/09/04 09:56:59;;;;;;;0.00;0.00;;;;;;;23.37;83.70;101424.03;5051725;28;20044;-84
2023/09/04 09:59:27;;;;;;;0.00;0.00;;;;;;;23.36;83.00;101399.28;5053907;28;20029;-84
2023/09/04 10:01:53;;;;;;;0.00;0.00;;;;;;;23.24;84.23;101398.25;5051317;28;20021;-84
2023/09/04 10:04:21;;;;;;;0.63;0.00;;;;;;;23.13;84.30;101401.56;5048850;28;20029;-84
2023/09/04 10:06:49;;;;;;;0.00;0.00;;;;;;;23.16;80.57;101393.16;5046684;28;20497;-84
2023/09/04 10:09:20;;;;;;;0.00;0.00;;;;;;;23.33;82.97;101396.22;5049226;28;20163;-84
2023/09/04 10:11:51;;;;;;;0.00;0.00;;;;;;;23.47;76.39;101389.88;5052773;28;20036;-84
2023/09/04 10:14:32;;;;;;;0.00;0.00;;;;;;;23.39;82.29;101390.06;5052396;28;20040;-84
2023/09/04 10:17:00;;;;;;;0.00;0.00;;;;;;;23.31;84.08;101395.59;5046518;28;20036;-84
2023/09/04 10:19:32;;;;;;;0.20;0.00;;;;;;;23.36;84.43;101403.78;5064874;28;20029;-85
2023/09/04 10:22:03;;;;;;;0.08;0.00;;;;;;;23.52;83.95;101389.25;5046111;28;20111;-85
2023/09/04 10:24:44;;;;;;;0.00;0.00;;;;;;;23.56;78.75;101391.31;5047446;28;20025;-85
2023/09/04 10:27:11;;;;;;;0.00;0.00;;;;;;;23.74;83.55;101386.16;5046206;28;20040;-85
2023/09/04 10:29:54;;;;;;;0.00;0.00;;;;;;;23.63;78.94;101380.69;5046665;28;20455;-85
2023/09/04 10:32:20;;;;;;;0.10;0.00;;;;;;;23.45;81.90;101382.09;5040591;28;20390;-85
2023/09/04 10:34:45;;;;;;;0.00;0.00;;;;;;;23.59;84.19;101379.44;5042446;28;20037;-84
2023/09/04 10:37:12;;;;;;;0.00;0.00;;;;;;;23.79;83.11;101385.53;5045513;28;20037;-85
2023/09/04 10:39:39;;;;;;;0.32;0.00;;;;;;;23.85;83.06;101390.00;5045858;28;20072;-85
2023/09/04 10:42:06;;;;;;;0.00;0.00;;;;;;;23.78;82.48;101371.41;5050453;28;20419;-85
2023/09/04 10:44:47;;;;;;;0.00;0.00;;;;;;;23.67;80.35;101371.22;5049536;28;20137;-86
2023/09/04 10:47:14;;;;;;;0.00;0.00;;;;;;;23.61;79.16;101364.91;5040973;28;20057;-86
2023/09/04 10:49:42;;;;;;;0.00;0.00;;;;;;;23.78;75.53;101365.25;5062324;28;20038;-86
2023/09/04 10:52:08;;;;;;;0.00;0.00;;;;;;;23.78;75.27;101367.91;5046854;28;20112;-86
2023/09/04 10:54:34;;;;;;;0.05;0.00;;;;;;;23.66;71.83;101358.94;5047886;28;20045;-85
2023/09/04 10:57:02;;;;;;;0.15;0.00;;;;;;;23.55;79.46;101362.28;5045478;28;20086;-85
2023/09/04 10:59:28;;;;;;;0.00;0.00;;;;;;;23.54;78.51;101361.47;5050853;28;20030;-83
2023/09/04 11:01:54;;;;;;;0.17;0.00;;;;;;;23.63;80.83;101359.38;5047458;28;20043;-84
2023/09/04 11:04:35;;;;;;;0.00;0.00;;;;;;;23.71;79.23;101345.84;5049204;28;20029;-83
2023/09/04 11:07:15;;;;;;;0.10;0.00;;;;;;;23.73;78.45;101349.09;5062208;28;20044;-83
2023/09/04 11:09:41;;;;;;;0.00;0.00;;;;;;;23.67;77.58;101341.97;5048478;28;20406;-83
2023/09/04 11:12:31;;;;;;;0.20;0.00;;;;;;;23.63;76.61;101344.22;5045940;28;20037;-85
2023/09/04 11:14:56;;;;;;;0.00;0.00;;;;;;;23.65;77.28;101344.00;5048235;28;20052;-85
2023/09/04 11:17:26;;;;;;;0.10;0.00;;;;;;;23.69;77.57;101347.88;5045461;28;20051;-86
2023/09/04 11:19:52;;;;;;;0.55;0.00;;;;;;;23.82;81.36;101343.34;5046692;28;20021;-85